Harvey, ND

8:02 AM CDT on April 26, 2017 (GMT -0500)
Harvey

Weather History for K5H4 - November, 2012

Change the Weather History Date:

Monday, November 19, 2012

  Actual Average (KRUG) Record (KRUG)
Temperature  
Mean Temperature 32 °F -  
Max Temperature 41 °F 31 °F 57 °F (1989)
Min Temperature 24 °F 16 °F -21 °F (1978)
Degree Days  
Heating Degree Days 32    
Moisture  
Dew Point 31 °F    
Average Humidity 91    
Maximum Humidity 100    
Minimum Humidity 70    
Precipitation  
Precipitation 0.00 in - - ()
Sea Level Pressure  
Sea Level Pressure 30.04 in    
Wind  
Wind Speed 9 mph (West)    
Max Wind Speed 15 mph    
Max Gust Speed 20 mph    
Visibility 10 miles    
Events      
Averages and records for this station are not official NWS values.
T = Trace of Precipitation, MM = Missing Value Source: NWS Daily Summary

Daily Weather History Graph

Daily Weather History Graph

Search for Another Location

Airport or City:

Trip Planner

Search our weather history database for the weather conditions in past years. The results will help you decide how hot, cold, wet, or windy it might be!

Date:

Astronomy

Nov. 19, 2012 Rise Set
Actual Time 7:52 AM CST 4:57 PM CST
Civil Twilight 7:17 AM CST 5:32 PM CST
Nautical Twilight 6:39 AM CST 6:10 PM CST
Astronomical Twilight 6:03 AM CST 6:46 PM CST
Moon 12:45 PM CST (11/19) 11:39 PM CST (11/19)
Length of Visible Light 10h 14m
Length of Day
9h 05m
Waxing Crescent, 41% of the Moon is Illuminated
Nov 19
Waxing Crescent
Nov 20
First Quarter
Nov 28
Full
Dec 6
Last Quarter
Dec 13
New

Hourly Weather History & Observations

Time (CST) Temp. Windchill Dew Point Humidity Pressure Visibility Wind Dir Wind Speed Gust Speed Precip Events Conditions
12:15 AM 33.8 °F 25.8 °F 33.8 °F 100% 29.87 in 10.0 mi West 10.4 mph - N/A   Clear
12:35 AM 35.6 °F 27.5 °F 35.6 °F 100% 29.87 in 10.0 mi West 11.5 mph - N/A   Clear
12:55 AM 37.4 °F 30.8 °F 35.6 °F 93% 29.87 in 10.0 mi WNW 9.2 mph - N/A   Clear
1:15 AM 35.6 °F 27.5 °F 35.6 °F 100% 29.88 in 10.0 mi WNW 11.5 mph - N/A   Clear
1:35 AM 35.6 °F 28.0 °F 33.8 °F 93% 29.88 in 10.0 mi WNW 10.4 mph - N/A   Clear
1:55 AM 35.6 °F 26.6 °F 33.8 °F 93% 29.88 in 10.0 mi NW 13.8 mph - N/A   Clear
2:15 AM 35.6 °F 30.7 °F 33.8 °F 93% 29.90 in 10.0 mi WNW 5.8 mph - N/A   Clear
2:35 AM 35.6 °F 30.7 °F 33.8 °F 93% 29.91 in 10.0 mi NW 5.8 mph - N/A   Clear
2:55 AM 35.6 °F 28.0 °F 32.0 °F 87% 29.92 in 10.0 mi WNW 10.4 mph - N/A   Clear
3:15 AM 35.6 °F 27.1 °F 32.0 °F 87% 29.93 in 10.0 mi WNW 12.7 mph - N/A   Clear
3:35 AM 33.8 °F 25.3 °F 32.0 °F 93% 29.93 in 10.0 mi WNW 11.5 mph - N/A   Clear
3:55 AM 32.0 °F 23.0 °F 32.0 °F 100% 29.94 in 10.0 mi WNW 11.5 mph 16.1 mph N/A   Clear
4:15 AM 32.0 °F 24.8 °F 32.0 °F 100% 29.94 in 10.0 mi WNW 8.1 mph - N/A   Clear
4:35 AM 32.0 °F 24.2 °F 32.0 °F 100% 29.94 in 10.0 mi NW 9.2 mph - N/A   Clear
4:55 AM 33.8 °F 25.3 °F 32.0 °F 93% 29.94 in 10.0 mi NW 11.5 mph - N/A   Clear
5:15 AM 32.0 °F 22.1 °F 32.0 °F 100% 29.96 in 10.0 mi NW 13.8 mph - N/A   Clear
5:35 AM 32.0 °F 22.1 °F 32.0 °F 100% 29.97 in 10.0 mi WNW 13.8 mph 19.6 mph N/A   Clear
6:15 AM 32.0 °F 23.0 °F 32.0 °F 100% 29.99 in 10.0 mi WNW 11.5 mph - N/A   Clear
6:35 AM 32.0 °F 23.0 °F 32.0 °F 100% 29.98 in 10.0 mi NW 11.5 mph - N/A   Clear
6:55 AM 32.0 °F 22.5 °F 30.2 °F 93% 30.00 in 10.0 mi WNW 12.7 mph - N/A   Clear
7:35 AM 28.4 °F 19.7 °F 28.4 °F 100% 30.01 in 10.0 mi WNW 9.2 mph - N/A   Clear
7:55 AM 28.4 °F 19.1 °F 28.4 °F 100% 30.02 in 10.0 mi WNW 10.4 mph - N/A   Clear
8:15 AM 30.2 °F 21.9 °F 28.4 °F 93% 30.03 in 10.0 mi WNW 9.2 mph - N/A   Clear
8:35 AM 30.2 °F 21.3 °F 28.4 °F 93% 30.03 in 10.0 mi WNW 10.4 mph - N/A   Clear
8:55 AM 32.0 °F 23.0 °F 28.4 °F 87% 30.04 in 10.0 mi WNW 11.5 mph - N/A   Clear
9:15 AM 32.0 °F 22.5 °F 28.4 °F 87% 30.05 in 10.0 mi WNW 12.7 mph - N/A   Clear
9:35 AM 32.0 °F 22.5 °F 28.4 °F 87% 30.05 in 10.0 mi WNW 12.7 mph - N/A   Clear
9:55 AM 32.0 °F 21.6 °F 30.2 °F 93% 30.06 in 10.0 mi NW 15.0 mph - N/A   Clear
10:15 AM 32.0 °F 22.1 °F 30.2 °F 93% 30.07 in 10.0 mi WNW 13.8 mph - N/A   Clear
10:35 AM 32.0 °F 23.6 °F 30.2 °F 93% 30.08 in 10.0 mi WNW 10.4 mph - N/A   Clear
10:55 AM 32.0 °F 22.5 °F 32.0 °F 100% 30.08 in 10.0 mi NW 12.7 mph - N/A   Clear
11:15 AM 33.8 °F 26.4 °F 30.2 °F 87% 30.08 in 10.0 mi WNW 9.2 mph - N/A   Clear
11:35 AM 35.6 °F 29.9 °F 30.2 °F 81% 30.09 in 10.0 mi WNW 6.9 mph - N/A   Clear
11:55 AM 35.6 °F 29.9 °F 32.0 °F 87% 30.09 in 10.0 mi WNW 6.9 mph - N/A   Clear
12:15 PM 35.6 °F 29.9 °F 32.0 °F 87% 30.09 in 10.0 mi West 6.9 mph - N/A   Clear
12:35 PM 37.4 °F 30.8 °F 32.0 °F 81% 30.09 in 10.0 mi West 9.2 mph - N/A   Clear
12:55 PM 37.4 °F 31.4 °F 32.0 °F 81% 30.09 in 10.0 mi West 8.1 mph - N/A   Clear
1:15 PM 37.4 °F 31.4 °F 32.0 °F 81% 30.10 in 10.0 mi West 8.1 mph - N/A   Clear
1:35 PM 37.4 °F 31.4 °F 32.0 °F 81% 30.10 in 10.0 mi West 8.1 mph - N/A   Clear
1:55 PM 39.2 °F 37.0 °F 32.0 °F 75% 30.10 in 10.0 mi West 3.5 mph - N/A   Clear
2:15 PM 39.2 °F 35.9 °F 32.0 °F 75% 30.09 in 10.0 mi West 4.6 mph - N/A   Clear
2:35 PM 39.2 °F 37.0 °F 32.0 °F 75% 30.09 in 10.0 mi West 3.5 mph - N/A   Clear
2:55 PM 41.0 °F 38.0 °F 32.0 °F 70% 30.10 in 10.0 mi West 4.6 mph - N/A   Clear
3:15 PM 41.0 °F 39.0 °F 32.0 °F 70% 30.10 in 10.0 mi West 3.5 mph - N/A   Clear
3:35 PM 39.2 °F 35.0 °F 32.0 °F 75% 30.11 in 10.0 mi SSW 5.8 mph - N/A   Clear
3:55 PM 39.2 °F 37.0 °F 32.0 °F 75% 30.11 in 10.0 mi South 3.5 mph - N/A   Clear
4:15 PM 37.4 °F 34.9 °F 32.0 °F 81% 30.10 in 10.0 mi SSE 3.5 mph - N/A   Clear
4:35 PM 37.4 °F 33.8 °F 32.0 °F 81% 30.10 in 10.0 mi SE 4.6 mph - N/A   Clear
4:55 PM 35.6 °F - 32.0 °F 87% 30.11 in 10.0 mi Calm Calm - N/A   Clear
5:15 PM 35.6 °F 32.8 °F 32.0 °F 87% 30.11 in 10.0 mi South 3.5 mph - N/A   Clear
5:35 PM 35.6 °F - 32.0 °F 87% 30.11 in 10.0 mi Calm Calm - N/A   Clear
5:55 PM 33.8 °F - 32.0 °F 93% 30.12 in 10.0 mi Calm Calm - N/A   Clear
6:15 PM 32.0 °F 28.7 °F 32.0 °F 100% 30.11 in 10.0 mi SE 3.5 mph - N/A   Clear
6:35 PM 26.6 °F 20.0 °F 26.6 °F 100% 30.12 in 10.0 mi ESE 5.8 mph - N/A   Clear
6:55 PM 28.4 °F 23.3 °F 28.4 °F 100% 30.13 in 10.0 mi SSE 4.6 mph - N/A   Clear
7:15 PM 28.4 °F 22.2 °F 28.4 °F 100% 30.13 in 10.0 mi SSE 5.8 mph - N/A   Clear
7:35 PM 32.0 °F 27.5 °F 32.0 °F 100% 30.12 in 10.0 mi South 4.6 mph - N/A   Clear
7:55 PM 26.6 °F 20.0 °F 26.6 °F 100% 30.12 in 9.0 mi South 5.8 mph - N/A   Clear
8:15 PM 28.4 °F 20.4 °F 28.4 °F 100% 30.11 in 10.0 mi South 8.1 mph - N/A   Clear
8:35 PM 28.4 °F 23.3 °F 28.4 °F 100% 30.11 in 10.0 mi SSW 4.6 mph - N/A   Clear
9:15 PM 24.8 °F 17.9 °F 24.8 °F 100% 30.10 in 10.0 mi SSE 5.8 mph - N/A   Clear
9:35 PM 28.4 °F 21.2 °F 28.4 °F 100% 30.11 in 10.0 mi South 6.9 mph - N/A   Clear
9:55 PM 28.4 °F 23.3 °F 28.4 °F 100% 30.10 in 10.0 mi South 4.6 mph - N/A   Clear
10:15 PM 28.4 °F 21.2 °F 28.4 °F 100% 30.10 in 10.0 mi South 6.9 mph - N/A   Clear
10:35 PM 28.4 °F 24.6 °F 28.4 °F 100% 30.10 in 10.0 mi SSE 3.5 mph - N/A   Clear
10:55 PM 24.8 °F 16.9 °F 24.8 °F 100% 30.09 in 10.0 mi SSE 6.9 mph - N/A   Clear
11:15 PM 30.2 °F 21.3 °F 28.4 °F 93% 30.07 in 10.0 mi South 10.4 mph - N/A   Clear
11:35 PM 32.0 °F 24.8 °F 28.4 °F 87% 30.07 in 10.0 mi South 8.1 mph - N/A   Clear
11:55 PM 32.0 °F 24.8 °F 28.4 °F 87% 30.07 in 10.0 mi South 8.1 mph - N/A   Clear